createdAt,value
2022-11-08T00:01:14.769Z,79.04
2022-11-08T00:03:40.873Z,79.24
2022-11-08T00:06:06.965Z,79.09
2022-11-08T00:08:33.056Z,79.25
2022-11-08T00:10:59.178Z,79.28
2022-11-08T00:13:25.265Z,79.16
2022-11-08T00:15:51.353Z,79.25
2022-11-08T00:18:17.571Z,79.30
2022-11-08T00:20:43.814Z,79.18
2022-11-08T00:23:09.908Z,79.34
2022-11-08T00:25:36.016Z,79.32
2022-11-08T00:28:02.113Z,79.27
2022-11-08T00:30:28.224Z,79.26
2022-11-08T00:32:54.351Z,79.21
2022-11-08T00:35:20.454Z,79.24
2022-11-08T00:37:46.556Z,79.37
2022-11-08T00:40:12.668Z,79.35
2022-11-08T00:42:38.769Z,79.31
2022-11-08T00:45:04.875Z,79.13
2022-11-08T00:47:30.997Z,79.12
2022-11-08T00:49:57.107Z,79.13
2022-11-08T00:52:23.202Z,79.12
2022-11-08T00:54:49.998Z,79.16
2022-11-08T00:57:16.091Z,79.23
2022-11-08T00:59:42.174Z,79.18
2022-11-08T01:02:08.326Z,79.01
2022-11-08T01:04:34.471Z,79.20
2022-11-08T01:07:00.567Z,79.04
2022-11-08T01:09:26.693Z,79.10
2022-11-08T01:11:52.804Z,79.15
2022-11-08T01:14:18.904Z,79.13
2022-11-08T01:16:45.017Z,79.08
2022-11-08T01:19:11.113Z,79.06
2022-11-08T01:21:37.214Z,79.08
2022-11-08T01:24:03.328Z,78.98
2022-11-08T01:26:29.452Z,79.13
2022-11-08T01:28:55.558Z,79.14
2022-11-08T01:31:21.678Z,79.13
2022-11-08T01:33:51.283Z,79.13
2022-11-08T01:36:17.757Z,79.11
2022-11-08T01:38:43.865Z,78.92
2022-11-08T01:41:09.972Z,79.02
2022-11-08T01:43:36.067Z,78.96
2022-11-08T01:46:02.201Z,78.95
2022-11-08T01:48:28.294Z,78.74
2022-11-08T01:50:54.394Z,78.79
2022-11-08T01:53:20.523Z,78.66
2022-11-08T01:55:46.618Z,78.72
2022-11-08T01:58:12.701Z,78.65
2022-11-08T02:00:39.413Z,78.47
2022-11-08T02:03:05.519Z,78.44
2022-11-08T02:05:31.608Z,78.30
2022-11-08T02:07:57.732Z,78.29
2022-11-08T02:10:23.827Z,78.24
2022-11-08T02:12:49.927Z,78.27
2022-11-08T02:15:16.055Z,77.95
2022-11-08T02:17:42.159Z,77.89
2022-11-08T02:20:08.250Z,77.89
2022-11-08T02:22:34.384Z,77.57
2022-11-08T02:25:00.516Z,77.69
2022-11-08T02:27:26.637Z,77.51
2022-11-08T02:29:52.753Z,77.28
2022-11-08T02:32:18.849Z,77.12
2022-11-08T02:34:44.940Z,76.91
2022-11-08T02:37:11.043Z,76.86
2022-11-08T02:39:37.141Z,76.73
2022-11-08T02:42:03.233Z,76.44
2022-11-08T02:44:29.701Z,76.47
2022-11-08T02:46:55.789Z,76.33
2022-11-08T02:49:21.875Z,76.11
2022-11-08T02:51:47.998Z,76.00
2022-11-08T02:54:14.105Z,75.89
2022-11-08T02:56:40.286Z,75.80
2022-11-08T02:59:06.383Z,75.65
2022-11-08T03:01:32.565Z,75.52
2022-11-08T03:03:58.733Z,75.40
2022-11-08T03:06:24.852Z,75.43
2022-11-08T03:08:50.956Z,75.41
2022-11-08T03:11:17.058Z,75.41
2022-11-08T03:13:43.172Z,75.20
2022-11-08T03:16:09.250Z,75.20
2022-11-08T03:18:35.356Z,75.24
2022-11-08T03:21:01.471Z,75.02
2022-11-08T03:23:27.562Z,75.16
2022-11-08T03:25:53.652Z,75.05
2022-11-08T03:28:22.829Z,75.02
2022-11-08T03:30:49.469Z,75.10
2022-11-08T03:33:15.566Z,75.11
2022-11-08T03:35:41.694Z,75.19
2022-11-08T03:38:07.797Z,75.43
2022-11-08T03:40:33.883Z,75.50
2022-11-08T03:42:59.988Z,75.55
2022-11-08T03:45:26.090Z,75.63
2022-11-08T03:47:52.184Z,75.59
2022-11-08T03:50:18.288Z,75.79
2022-11-08T03:52:44.390Z,75.64
2022-11-08T03:55:10.484Z,75.73
2022-11-08T03:57:36.597Z,75.83
2022-11-08T04:00:02.693Z,76.01
2022-11-08T04:02:28.811Z,76.19
2022-11-08T04:04:55.496Z,75.96
2022-11-08T04:07:21.603Z,76.02
2022-11-08T04:09:47.693Z,76.07
2022-11-08T04:12:13.818Z,76.10
2022-11-08T04:14:39.909Z,76.22
2022-11-08T04:17:06.007Z,76.10
2022-11-08T04:19:32.123Z,76.35
2022-11-08T04:21:58.220Z,76.18
2022-11-08T04:24:24.316Z,76.24
2022-11-08T04:26:50.428Z,76.23
2022-11-08T04:29:16.517Z,76.34
2022-11-08T04:31:42.621Z,76.33
2022-11-08T04:34:08.760Z,76.41
2022-11-08T04:36:34.851Z,76.36
2022-11-08T04:39:00.937Z,76.45
2022-11-08T04:41:27.057Z,76.60
2022-11-08T04:43:53.159Z,76.56
2022-11-08T04:46:19.263Z,76.56
2022-11-08T04:48:45.383Z,76.52
2022-11-08T04:51:11.474Z,76.52
2022-11-08T04:53:37.576Z,76.59
2022-11-08T04:56:03.686Z,76.68
2022-11-08T04:58:29.814Z,76.50
2022-11-08T05:00:55.923Z,76.64
2022-11-08T05:03:22.044Z,76.52
2022-11-08T05:05:48.147Z,76.68
2022-11-08T05:08:14.274Z,76.68
2022-11-08T05:10:40.738Z,76.62
2022-11-08T05:13:06.828Z,76.60
2022-11-08T05:15:32.927Z,76.67
2022-11-08T05:17:59.059Z,76.62
2022-11-08T05:20:25.157Z,76.80
2022-11-08T05:22:52.265Z,76.74
2022-11-08T05:25:18.408Z,76.67
2022-11-08T05:27:44.513Z,76.63
2022-11-08T05:30:10.608Z,76.58
2022-11-08T05:32:36.739Z,76.59
2022-11-08T05:35:02.832Z,76.67
2022-11-08T05:37:28.928Z,76.68
2022-11-08T05:39:55.049Z,76.63
2022-11-08T05:42:21.157Z,76.49
2022-11-08T05:44:47.247Z,76.44
2022-11-08T05:47:13.516Z,76.34
2022-11-08T05:49:39.609Z,76.34
2022-11-08T05:52:05.756Z,76.27
2022-11-08T05:54:31.873Z,76.06
2022-11-08T05:56:57.970Z,75.97
2022-11-08T05:59:24.114Z,75.88
2022-11-08T06:01:50.309Z,75.87
2022-11-08T06:04:16.442Z,75.76
2022-11-08T06:06:42.697Z,75.72
2022-11-08T06:09:08.821Z,75.63
2022-11-08T06:11:34.920Z,75.38
2022-11-08T06:14:01.025Z,75.44
2022-11-08T06:16:27.155Z,75.38
2022-11-08T06:18:53.333Z,75.19
2022-11-08T06:21:19.425Z,75.11
2022-11-08T06:23:45.536Z,74.99
2022-11-08T06:26:11.628Z,74.79
2022-11-08T06:28:37.719Z,74.68
2022-11-08T06:31:04.060Z,74.51
2022-11-08T06:33:30.166Z,74.27
2022-11-08T06:35:56.259Z,74.12
2022-11-08T06:38:22.400Z,73.83
2022-11-08T06:40:48.566Z,73.64
2022-11-08T06:43:19.375Z,73.50
2022-11-08T06:45:46.074Z,73.39
2022-11-08T06:48:12.160Z,73.24
2022-11-08T06:50:38.249Z,73.10
2022-11-08T06:53:04.372Z,72.96
2022-11-08T06:55:30.479Z,72.86
2022-11-08T06:57:56.600Z,72.67
2022-11-08T07:00:22.755Z,72.45
2022-11-08T07:02:48.999Z,72.29
2022-11-08T07:05:15.159Z,72.18
2022-11-08T07:07:41.266Z,71.95
2022-11-08T07:10:07.359Z,71.83
2022-11-08T07:12:33.465Z,71.75
2022-11-08T07:15:00.240Z,71.57
2022-11-08T07:17:26.336Z,71.36
2022-11-08T07:19:52.444Z,71.19
2022-11-08T07:22:18.553Z,70.95
2022-11-08T07:24:44.645Z,70.87
2022-11-08T07:27:10.727Z,70.76
2022-11-08T07:29:36.844Z,70.39
2022-11-08T07:32:02.944Z,70.13
2022-11-08T07:34:29.045Z,69.96
2022-11-08T07:36:55.163Z,69.79
2022-11-08T07:39:21.265Z,69.56
2022-11-08T07:41:47.352Z,69.35
2022-11-08T07:44:13.472Z,69.11
2022-11-08T07:46:39.576Z,69.02
2022-11-08T07:49:05.668Z,68.88
2022-11-08T07:51:31.770Z,68.63
2022-11-08T07:54:02.657Z,68.37
2022-11-08T07:56:29.229Z,68.25
2022-11-08T07:58:55.345Z,67.99
2022-11-08T08:01:21.445Z,67.67
2022-11-08T08:03:47.553Z,67.48
2022-11-08T08:06:13.671Z,67.20
2022-11-08T08:08:39.763Z,66.82
2022-11-08T08:11:05.938Z,66.60
2022-11-08T08:13:32.060Z,66.24
2022-11-08T08:15:58.139Z,66.07
2022-11-08T08:18:24.241Z,65.70
2022-11-08T08:20:50.394Z,65.45
2022-11-08T08:23:16.688Z,65.18
2022-11-08T08:25:43.031Z,64.81
2022-11-08T08:28:09.156Z,64.87
2022-11-08T08:30:35.258Z,64.61
2022-11-08T08:33:26.437Z,64.10
2022-11-08T08:35:47.473Z,63.96
2022-11-08T08:38:13.577Z,63.77
2022-11-08T08:40:39.669Z,63.22
2022-11-08T08:43:05.776Z,62.93
2022-11-08T08:45:31.864Z,62.94
2022-11-08T08:47:57.957Z,62.77
2022-11-08T08:50:24.066Z,62.49
2022-11-08T08:52:50.165Z,62.16
2022-11-08T08:55:16.255Z,61.91
2022-11-08T08:57:42.371Z,61.80
2022-11-08T09:02:54.600Z,61.69
2022-11-08T09:05:20.764Z,61.44
2022-11-08T09:07:46.867Z,61.50
2022-11-08T09:10:12.975Z,61.17
2022-11-08T09:12:39.083Z,61.12
2022-11-08T09:15:05.195Z,60.98
2022-11-08T09:17:32.121Z,61.09
2022-11-08T09:19:58.280Z,60.90
2022-11-08T09:22:24.396Z,60.60
2022-11-08T09:24:50.511Z,60.38
2022-11-08T09:27:16.625Z,60.52
2022-11-08T09:29:42.706Z,60.62
2022-11-08T09:32:08.828Z,60.30
2022-11-08T09:34:34.937Z,60.19
2022-11-08T09:37:02.304Z,59.97
2022-11-08T09:39:28.412Z,59.64
2022-11-08T09:41:55.752Z,59.34
2022-11-08T09:44:22.039Z,59.03
2022-11-08T09:46:48.148Z,59.09
2022-11-08T09:49:14.236Z,58.52
2022-11-08T09:51:40.388Z,58.24
2022-11-08T09:54:06.492Z,57.82
2022-11-08T09:56:32.593Z,57.84
2022-11-08T09:58:58.685Z,57.27
2022-11-08T10:01:27.446Z,56.69
2022-11-08T10:03:53.775Z,56.42
2022-11-08T10:06:19.930Z,55.89
2022-11-08T10:08:46.107Z,55.40
2022-11-08T10:11:12.200Z,54.82
2022-11-08T10:13:38.290Z,54.44
2022-11-08T10:16:04.447Z,54.13
2022-11-08T10:18:30.557Z,53.90
2022-11-08T10:20:56.668Z,53.77
2022-11-08T10:23:22.785Z,53.75
2022-11-08T10:25:48.911Z,53.74
2022-11-08T10:28:15.017Z,53.66
2022-11-08T10:30:41.442Z,53.45
2022-11-08T10:33:07.544Z,53.57
2022-11-08T10:35:33.636Z,53.42
2022-11-08T10:37:59.756Z,53.57
2022-11-08T10:40:25.857Z,53.60
2022-11-08T10:42:51.948Z,53.73
2022-11-08T10:45:18.059Z,53.80
2022-11-08T10:47:44.156Z,53.85
2022-11-08T10:50:10.251Z,53.95
2022-11-08T10:52:36.360Z,53.88
2022-11-08T10:55:02.453Z,53.86
2022-11-08T10:57:28.547Z,54.05
2022-11-08T10:59:54.664Z,54.04
2022-11-08T11:02:20.836Z,54.00
2022-11-08T11:04:46.939Z,54.03
2022-11-08T11:07:13.074Z,54.07
2022-11-08T11:09:39.200Z,54.19
2022-11-08T11:12:05.283Z,54.38
2022-11-08T11:14:31.423Z,54.16
2022-11-08T11:16:57.514Z,54.15
2022-11-08T11:19:23.616Z,54.26
2022-11-08T11:21:50.199Z,54.14
2022-11-08T11:24:19.233Z,54.17
2022-11-08T11:26:46.334Z,54.18
2022-11-08T11:29:12.436Z,54.18
2022-11-08T11:31:38.538Z,54.14
2022-11-08T11:34:04.638Z,54.07
2022-11-08T11:36:30.753Z,54.30
2022-11-08T11:38:56.863Z,54.21
2022-11-08T11:41:22.972Z,54.11
2022-11-08T11:43:49.139Z,54.19
2022-11-08T11:46:15.229Z,54.18
2022-11-08T11:48:41.345Z,54.47
2022-11-08T11:51:07.556Z,54.55
2022-11-08T11:53:33.709Z,54.41
2022-11-08T11:55:59.792Z,54.45
2022-11-08T11:58:25.903Z,54.60
2022-11-08T12:00:51.996Z,54.79
2022-11-08T12:03:18.430Z,54.50
2022-11-08T12:05:44.895Z,54.69
2022-11-08T12:08:10.986Z,54.78
2022-11-08T12:10:37.080Z,54.62
2022-11-08T12:13:03.210Z,54.75
2022-11-08T12:15:29.305Z,54.64
2022-11-08T12:17:55.405Z,54.74
2022-11-08T12:20:26.577Z,54.69
2022-11-08T12:22:53.327Z,54.81
2022-11-08T12:25:19.427Z,54.76
2022-11-08T12:27:45.528Z,54.74
2022-11-08T12:30:11.741Z,54.68
2022-11-08T12:32:37.919Z,54.73
2022-11-08T12:35:04.327Z,54.67
2022-11-08T12:37:30.430Z,54.44
2022-11-08T12:39:56.531Z,54.39
2022-11-08T12:42:22.632Z,54.37
2022-11-08T12:44:48.735Z,53.93
2022-11-08T12:47:14.838Z,54.00
2022-11-08T12:49:40.954Z,53.88
2022-11-08T12:52:07.053Z,53.73
2022-11-08T12:54:33.166Z,53.68
2022-11-08T12:56:59.269Z,53.73
2022-11-08T12:59:25.369Z,53.59
2022-11-08T13:01:51.468Z,53.56
2022-11-08T13:04:17.594Z,53.44
2022-11-08T13:06:43.727Z,53.44
2022-11-08T13:09:09.867Z,53.48
2022-11-08T13:11:35.982Z,53.41
2022-11-08T13:14:02.088Z,53.23
2022-11-08T13:16:28.176Z,53.32
2022-11-08T13:18:54.285Z,53.39
2022-11-08T13:21:20.382Z,53.46
2022-11-08T13:23:46.676Z,53.43
2022-11-08T13:26:12.807Z,53.46
2022-11-08T13:28:38.901Z,53.48
2022-11-08T13:31:04.994Z,53.53
2022-11-08T13:33:31.107Z,53.48
2022-11-08T13:35:57.219Z,53.58
2022-11-08T13:38:23.334Z,53.61
2022-11-08T13:40:54.802Z,53.85
2022-11-08T13:43:22.012Z,54.11
2022-11-08T13:45:48.111Z,53.99
2022-11-08T13:48:16.624Z,53.94
2022-11-08T13:50:46.095Z,54.09
2022-11-08T13:53:12.201Z,54.14
2022-11-08T13:55:38.318Z,54.37
2022-11-08T13:58:04.411Z,54.44
2022-11-08T14:00:30.511Z,54.61
2022-11-08T14:02:56.621Z,54.62
2022-11-08T14:05:22.730Z,54.74
2022-11-08T14:07:48.852Z,54.94
2022-11-08T14:10:14.965Z,55.05
2022-11-08T14:12:41.047Z,55.10
2022-11-08T14:15:07.142Z,55.27
2022-11-08T14:17:33.256Z,55.30
2022-11-08T14:19:59.345Z,55.46
2022-11-08T14:22:25.437Z,55.51
2022-11-08T14:24:51.547Z,55.83
2022-11-08T14:27:17.633Z,55.77
2022-11-08T14:29:43.719Z,55.83
2022-11-08T14:32:09.820Z,56.02
2022-11-08T14:34:35.932Z,56.20
2022-11-08T14:37:02.030Z,56.26
2022-11-08T14:39:28.142Z,56.42
2022-11-08T14:41:54.245Z,56.48
2022-11-08T14:44:20.337Z,56.53
2022-11-08T14:46:46.440Z,56.62
2022-11-08T14:49:12.537Z,56.85
2022-11-08T14:51:38.642Z,56.80
2022-11-08T14:54:04.756Z,56.91
2022-11-08T14:56:30.853Z,57.24
2022-11-08T14:58:56.945Z,57.17
2022-11-08T15:01:23.126Z,57.34
2022-11-08T15:03:49.297Z,57.41
2022-11-08T15:06:15.424Z,57.44
2022-11-08T15:08:41.540Z,57.63
2022-11-08T15:11:07.630Z,57.57
2022-11-08T15:13:33.937Z,57.68
2022-11-08T15:16:00.071Z,57.74
2022-11-08T15:18:26.165Z,57.90
2022-11-08T15:20:52.256Z,57.76
2022-11-08T15:23:18.579Z,58.01
2022-11-08T15:25:45.009Z,58.18
2022-11-08T15:28:11.112Z,58.00
2022-11-08T15:30:37.242Z,58.11
2022-11-08T15:33:03.372Z,58.38
2022-11-08T15:35:29.496Z,58.38
2022-11-08T15:37:55.612Z,58.43
2022-11-08T15:40:21.716Z,58.64
2022-11-08T15:42:47.820Z,58.67
2022-11-08T15:45:13.981Z,58.82
2022-11-08T15:47:40.076Z,58.91
2022-11-08T15:50:06.181Z,59.00
2022-11-08T15:52:32.295Z,59.30
2022-11-08T15:54:58.385Z,59.30
2022-11-08T15:57:24.480Z,59.40
2022-11-08T15:59:50.601Z,59.71
2022-11-08T16:02:16.695Z,59.58
2022-11-08T16:04:42.798Z,59.96
2022-11-08T16:07:08.979Z,59.94
2022-11-08T16:09:35.168Z,60.09
2022-11-08T16:12:01.270Z,60.18
2022-11-08T16:14:27.399Z,60.26
2022-11-08T16:16:53.524Z,60.16
2022-11-08T16:19:19.632Z,60.30
2022-11-08T16:21:45.757Z,60.57
2022-11-08T16:24:11.849Z,60.68
2022-11-08T16:26:37.957Z,60.55
2022-11-08T16:29:04.058Z,60.84
2022-11-08T16:31:30.173Z,60.89
2022-11-08T16:33:56.277Z,60.89
2022-11-08T16:36:22.390Z,61.20
2022-11-08T16:38:48.491Z,61.28
2022-11-08T16:41:14.595Z,61.41
2022-11-08T16:43:40.713Z,61.39
2022-11-08T16:46:07.393Z,61.33
2022-11-08T16:48:33.628Z,61.49
2022-11-08T16:51:00.221Z,61.63
2022-11-08T16:53:26.337Z,61.71
2022-11-08T16:55:52.433Z,61.77
2022-11-08T16:58:18.748Z,61.75
2022-11-08T17:00:45.138Z,61.63
2022-11-08T17:03:11.238Z,61.70
2022-11-08T17:05:37.366Z,61.67
2022-11-08T17:08:03.468Z,61.81
2022-11-08T17:10:29.576Z,61.89
2022-11-08T17:12:55.700Z,61.75
2022-11-08T17:15:21.806Z,61.88
2022-11-08T17:17:47.916Z,61.95
2022-11-08T17:20:14.019Z,62.02
2022-11-08T17:22:40.112Z,62.07
2022-11-08T17:25:06.211Z,62.05
2022-11-08T17:27:32.664Z,62.07
2022-11-08T17:29:58.820Z,62.24
2022-11-08T17:32:24.955Z,62.14
2022-11-08T17:34:51.064Z,62.17
2022-11-08T17:37:17.171Z,62.18
2022-11-08T17:39:43.263Z,62.11
2022-11-08T17:42:09.385Z,62.25
2022-11-08T17:44:35.472Z,62.16
2022-11-08T17:47:01.581Z,62.28
2022-11-08T17:49:27.695Z,62.33
2022-11-08T17:51:53.797Z,62.33
2022-11-08T17:54:19.887Z,62.22
2022-11-08T17:56:45.997Z,62.21
2022-11-08T17:59:12.086Z,62.45
2022-11-08T18:01:38.352Z,62.39
2022-11-08T18:04:04.617Z,62.28
2022-11-08T18:06:30.756Z,62.35
2022-11-08T18:08:56.896Z,62.36
2022-11-08T18:11:23.008Z,62.54
2022-11-08T18:13:49.157Z,62.63
2022-11-08T18:16:15.259Z,62.77
2022-11-08T18:18:41.388Z,63.01
2022-11-08T18:21:07.488Z,63.29
2022-11-08T18:23:33.580Z,63.44
2022-11-08T18:25:59.682Z,63.29
2022-11-08T18:28:25.784Z,63.30
2022-11-08T18:30:51.883Z,63.48
2022-11-08T18:33:18.195Z,63.41
2022-11-08T18:35:44.473Z,63.24
2022-11-08T18:38:10.626Z,63.47
2022-11-08T18:40:36.756Z,63.20
2022-11-08T18:43:02.837Z,63.25
2022-11-08T18:45:28.952Z,63.24
2022-11-08T18:47:55.105Z,63.23
2022-11-08T18:50:21.200Z,63.22
2022-11-08T18:52:47.346Z,63.20
2022-11-08T18:55:13.774Z,63.17
2022-11-08T18:57:39.888Z,63.39
2022-11-08T19:00:06.012Z,63.32
2022-11-08T19:02:32.144Z,63.37
2022-11-08T19:04:58.261Z,63.37
2022-11-08T19:07:24.382Z,63.40
2022-11-08T19:09:50.525Z,63.33
2022-11-08T19:12:16.635Z,63.54
2022-11-08T19:14:42.737Z,63.55
2022-11-08T19:17:08.854Z,63.81
2022-11-08T19:19:34.952Z,63.83
2022-11-08T19:22:01.043Z,63.94
2022-11-08T19:24:27.156Z,63.84
2022-11-08T19:26:53.260Z,63.83
2022-11-08T19:29:19.366Z,64.01
2022-11-08T19:31:45.507Z,64.02
2022-11-08T19:34:11.604Z,63.87
2022-11-08T19:36:37.700Z,64.22
2022-11-08T19:39:03.821Z,64.17
2022-11-08T19:41:29.913Z,64.07
2022-11-08T19:43:56.001Z,64.12
2022-11-08T19:46:22.147Z,64.12
2022-11-08T19:48:48.253Z,64.11
2022-11-08T19:51:14.351Z,64.16
2022-11-08T19:53:40.451Z,64.41
2022-11-08T19:56:06.547Z,64.53
2022-11-08T19:58:32.645Z,64.37
2022-11-08T20:00:58.792Z,64.34
2022-11-08T20:03:24.878Z,64.58
2022-11-08T20:05:50.960Z,64.38
2022-11-08T20:08:17.398Z,64.45
2022-11-08T20:10:43.697Z,64.34
2022-11-08T20:13:09.795Z,64.64
2022-11-08T20:15:35.921Z,64.71
2022-11-08T20:18:02.021Z,64.52
2022-11-08T20:20:28.113Z,64.65
2022-11-08T20:22:54.215Z,64.72
2022-11-08T20:25:20.300Z,64.64
2022-11-08T20:27:46.506Z,64.68
2022-11-08T20:30:12.617Z,64.80
2022-11-08T20:32:38.716Z,64.76
2022-11-08T20:35:04.833Z,64.81
2022-11-08T20:37:30.940Z,64.84
2022-11-08T20:39:57.051Z,65.00
2022-11-08T20:42:23.171Z,64.98
2022-11-08T20:44:49.301Z,65.17
2022-11-08T20:47:15.393Z,65.23
2022-11-08T20:49:41.482Z,65.10
2022-11-08T20:52:07.590Z,65.26
2022-11-08T20:54:33.690Z,65.39
2022-11-08T20:56:59.788Z,65.37
2022-11-08T20:59:25.904Z,65.50
2022-11-08T21:01:52.062Z,65.56
2022-11-08T21:04:18.209Z,65.54
2022-11-08T21:06:44.378Z,65.71
2022-11-08T21:09:34.564Z,65.63
2022-11-08T21:11:56.612Z,65.77
2022-11-08T21:14:22.694Z,65.97
2022-11-08T21:17:19.540Z,65.88
2022-11-08T21:19:34.863Z,65.94
2022-11-08T21:22:00.960Z,66.04
2022-11-08T21:24:27.039Z,66.05
2022-11-08T21:26:53.183Z,66.32
2022-11-08T21:29:19.290Z,66.23
2022-11-08T21:31:45.378Z,66.33
2022-11-08T21:34:11.489Z,66.42
2022-11-08T21:36:37.735Z,66.30
2022-11-08T21:39:03.980Z,66.47
2022-11-08T21:41:30.352Z,66.27
2022-11-08T21:43:56.628Z,66.54
2022-11-08T21:46:22.911Z,66.50
2022-11-08T21:48:49.218Z,66.46
2022-11-08T21:51:15.419Z,66.54
2022-11-08T21:53:52.379Z,66.52
2022-11-08T21:56:20.633Z,66.53
2022-11-08T21:58:46.838Z,66.58
2022-11-08T22:01:13.071Z,66.65
2022-11-08T22:03:39.403Z,66.74
2022-11-08T22:06:07.389Z,66.79
2022-11-08T22:08:33.635Z,66.87
2022-11-08T22:11:00.368Z,66.85
2022-11-08T22:13:26.631Z,66.76
2022-11-08T22:15:52.883Z,66.92
2022-11-08T22:18:26.484Z,66.88
2022-11-08T22:21:05.438Z,66.77
2022-11-08T22:23:31.745Z,66.85
2022-11-08T22:25:57.948Z,66.78
2022-11-08T22:28:24.199Z,66.82
2022-11-08T22:30:50.502Z,66.98
2022-11-08T22:33:16.745Z,66.96
2022-11-08T22:35:42.993Z,67.01
2022-11-08T22:38:09.257Z,67.03
2022-11-08T22:40:35.501Z,67.20
2022-11-08T22:43:01.724Z,67.24
2022-11-08T22:45:27.969Z,67.41
2022-11-08T22:47:54.220Z,67.27
2022-11-08T22:50:20.346Z,67.44
2022-11-08T22:52:46.457Z,67.52
2022-11-08T22:55:12.542Z,67.50
2022-11-08T22:57:38.633Z,67.66
2022-11-08T23:00:04.750Z,67.62
2022-11-08T23:02:33.265Z,67.83
2022-11-08T23:04:59.548Z,67.60
2022-11-08T23:07:25.654Z,67.84
2022-11-08T23:09:51.736Z,67.83
2022-11-08T23:12:17.829Z,68.04
2022-11-08T23:14:43.926Z,68.11
2022-11-08T23:17:10.010Z,68.25
2022-11-08T23:19:36.102Z,68.25
2022-11-08T23:22:02.208Z,68.28
2022-11-08T23:24:28.312Z,68.31
2022-11-08T23:26:54.419Z,68.61
2022-11-08T23:29:20.524Z,68.70
2022-11-08T23:31:46.611Z,68.81
2022-11-08T23:34:12.708Z,68.80
2022-11-08T23:36:39.294Z,68.99
2022-11-08T23:39:05.398Z,68.91
2022-11-08T23:41:31.487Z,68.95
2022-11-08T23:43:57.596Z,69.04
2022-11-08T23:46:23.696Z,69.24
2022-11-08T23:48:49.795Z,69.24
2022-11-08T23:51:15.898Z,69.21
2022-11-08T23:53:41.994Z,69.33
2022-11-08T23:56:08.092Z,69.28
2022-11-08T23:58:34.219Z,69.43
